Time;durP1;ratioP1;P1;durP2;ratioP2;P2;SDS_P1;SDS_P2;PMS_P1;PMS_P2;Temp;Humidity;BMP_temperature;BMP_pressure;BME280_temperature;BME280_humidity;BME280_pressure;Samples;Min_cycle;Max_cycle;Signal;HPM_P1;HPM_P2
2024/03/24 00:01:10;;;;;;;7.07;4.43;;;;;;;;;;4986521;28;20631;-87
2024/03/24 00:03:36;;;;;;;7.13;4.33;;;;;;;;;;4969265;28;20253;-87
2024/03/24 00:06:08;;;;;;;8.03;4.30;;;;;;;;;;4982922;28;20400;-86
2024/03/24 00:08:33;;;;;;;7.83;4.47;;;;;;;;;;4988639;28;20215;-83
2024/03/24 00:11:01;;;;;;;11.83;4.40;;;;;;;;;;5005135;28;20216;-85
2024/03/24 00:13:27;;;;;;;6.83;4.07;;;;;;;;;;4983827;28;20233;-87
2024/03/24 00:15:57;;;;;;;7.77;4.40;;;;;;;;;;4973762;28;20236;-87
2024/03/24 00:18:23;;;;;;;8.83;4.83;;;;;;;;;;4966855;28;20383;-86
2024/03/24 00:20:49;;;;;;;7.47;4.10;;;;;;;;;;4986270;28;20691;-85
2024/03/24 00:23:15;;;;;;;5.93;4.10;;;;;;;;;;4988159;28;20197;-87
2024/03/24 00:25:45;;;;;;;7.70;4.70;;;;;;;;;;4970880;28;20260;-86
2024/03/24 00:28:11;;;;;;;6.73;4.13;;;;;;;;;;5017642;28;20270;-84
2024/03/24 00:30:36;;;;;;;7.17;4.23;;;;;;;;;;4985321;28;20210;-82
2024/03/24 00:33:03;;;;;;;8.27;4.67;;;;;;;;;;4997115;28;20262;-84
2024/03/24 00:35:28;;;;;;;8.50;4.47;;;;;;;;;;4987612;28;20226;-83
2024/03/24 00:37:54;;;;;;;6.63;4.50;;;;;;;;;;4978910;28;20788;-86
2024/03/24 00:40:21;;;;;;;9.80;4.30;;;;;;;;;;4978686;28;20225;-84
2024/03/24 00:42:49;;;;;;;6.37;4.40;;;;;;;;;;5012276;28;20233;-84
2024/03/24 00:45:15;;;;;;;7.13;4.70;;;;;;;;;;5016080;28;20268;-85
2024/03/24 00:47:43;;;;;;;5.20;4.70;;;;;;;;;;5002109;28;20222;-82
2024/03/24 00:50:14;;;;;;;5.47;4.37;;;;;;;;;;4983816;28;20227;-84
2024/03/24 00:52:43;;;;;;;6.20;4.93;;;;;;;;;;4984302;28;20221;-85
2024/03/24 00:55:13;;;;;;;5.23;4.57;;;;;;;;;;5003791;28;20272;-84
2024/03/24 00:57:38;;;;;;;7.37;4.43;;;;;;;;;;5022637;28;20276;-84
2024/03/24 01:00:04;;;;;;;6.67;4.80;;;;;;;;;;4983825;28;20284;-87
2024/03/24 01:02:30;;;;;;;5.70;4.80;;;;;;;;;;4969593;28;20260;-84
2024/03/24 01:04:58;;;;;;;7.43;4.90;;;;;;;;;;4967448;28;20323;-85
2024/03/24 01:07:28;;;;;;;7.70;4.90;;;;;;;;;;4978975;28;20498;-83
2024/03/24 01:09:54;;;;;;;7.20;4.97;;;;;;;;;;4983305;28;20237;-84
2024/03/24 01:12:23;;;;;;;7.67;5.33;;;;;;;;;;4985429;28;20201;-84
2024/03/24 01:14:51;;;;;;;5.73;5.10;;;;;;;;;;4996098;28;20253;-84
2024/03/24 01:17:17;;;;;;;6.43;4.73;;;;;;;;;;5000381;28;20243;-82
2024/03/24 01:19:45;;;;;;;8.97;5.33;;;;;;;;;;4973984;28;20246;-84
2024/03/24 01:22:13;;;;;;;8.77;4.90;;;;;;;;;;4996738;28;20299;-84
2024/03/24 01:24:39;;;;;;;8.63;5.37;;;;;;;;;;4993056;28;20218;-87
2024/03/24 01:27:06;;;;;;;6.53;5.00;;;;;;;;;;4993573;28;20746;-84
2024/03/24 01:29:32;;;;;;;5.87;5.27;;;;;;;;;;5009004;28;20287;-85
2024/03/24 01:31:57;;;;;;;10.57;5.40;;;;;;;;;;4971296;28;20217;-84
2024/03/24 01:34:24;;;;;;;8.70;5.97;;;;;;;;;;5016129;28;20280;-84
2024/03/24 01:36:50;;;;;;;6.37;5.37;;;;;;;;;;5006722;28;20232;-85
2024/03/24 01:39:16;;;;;;;8.70;6.03;;;;;;;;;;4999532;28;20225;-84
2024/03/24 01:41:46;;;;;;;9.23;5.90;;;;;;;;;;4988900;28;20210;-82
2024/03/24 01:44:11;;;;;;;9.63;6.10;;;;;;;;;;4996528;28;20232;-84
2024/03/24 01:46:37;;;;;;;8.27;6.40;;;;;;;;;;4969769;28;20241;-85
2024/03/24 01:49:07;;;;;;;8.40;6.20;;;;;;;;;;4986439;28;20218;-84
2024/03/24 01:51:36;;;;;;;6.83;6.13;;;;;;;;;;4986487;28;20228;-85
2024/03/24 01:54:05;;;;;;;8.97;6.43;;;;;;;;;;5008668;28;20239;-84
2024/03/24 01:56:32;;;;;;;8.90;7.10;;;;;;;;;;5005463;28;20234;-86
2024/03/24 01:58:58;;;;;;;8.40;7.50;;;;;;;;;;4979045;28;20225;-85
2024/03/24 02:01:27;;;;;;;9.37;7.07;;;;;;;;;;4994410;28;20647;-84
2024/03/24 02:03:53;;;;;;;9.23;7.77;;;;;;;;;;4983167;28;20230;-85
2024/03/24 02:06:19;;;;;;;10.63;8.40;;;;;;;;;;4989813;28;20233;-84
2024/03/24 02:08:46;;;;;;;10.40;7.80;;;;;;;;;;4978005;28;20237;-84
2024/03/24 02:11:14;;;;;;;10.50;8.73;;;;;;;;;;5004073;28;20725;-84
2024/03/24 02:13:44;;;;;;;8.93;8.10;;;;;;;;;;4992206;28;20221;-86
2024/03/24 02:16:10;;;;;;;10.10;9.00;;;;;;;;;;4991246;28;20217;-86
2024/03/24 02:18:35;;;;;;;10.30;9.30;;;;;;;;;;5005273;28;21427;-85
2024/03/24 02:21:03;;;;;;;11.60;10.40;;;;;;;;;;4988332;28;20695;-84
2024/03/24 02:23:29;;;;;;;12.07;10.77;;;;;;;;;;4974541;28;20225;-83
2024/03/24 02:25:59;;;;;;;12.63;11.27;;;;;;;;;;4978069;28;20246;-84
2024/03/24 02:28:24;;;;;;;13.20;11.80;;;;;;;;;;4973136;28;20240;-85
2024/03/24 02:30:52;;;;;;;13.57;11.57;;;;;;;;;;4979898;28;20301;-86
2024/03/24 02:33:20;;;;;;;14.23;12.73;;;;;;;;;;5007211;28;20229;-83
2024/03/24 02:35:48;;;;;;;14.70;13.03;;;;;;;;;;4964898;28;20225;-86
2024/03/24 02:38:14;;;;;;;15.00;13.47;;;;;;;;;;4985881;28;20283;-85
2024/03/24 02:40:40;;;;;;;15.97;13.13;;;;;;;;;;4987807;28;20643;-84
2024/03/24 02:43:08;;;;;;;16.53;13.73;;;;;;;;;;4976239;28;20245;-85
2024/03/24 02:45:33;;;;;;;15.03;13.47;;;;;;;;;;5005071;28;20233;-86
2024/03/24 02:47:59;;;;;;;15.40;13.73;;;;;;;;;;4983042;28;20896;-86
2024/03/24 02:50:27;;;;;;;15.80;14.20;;;;;;;;;;5001799;28;21020;-85
2024/03/24 02:52:55;;;;;;;17.00;14.83;;;;;;;;;;4976000;28;20608;-87
2024/03/24 02:55:25;;;;;;;16.20;14.60;;;;;;;;;;4989719;28;20229;-85
2024/03/24 02:57:51;;;;;;;16.70;14.93;;;;;;;;;;4976081;28;20222;-85
2024/03/24 03:00:20;;;;;;;16.23;14.63;;;;;;;;;;4986101;28;20648;-84
2024/03/24 03:02:48;;;;;;;16.97;15.17;;;;;;;;;;4994358;28;20225;-85
2024/03/24 03:05:13;;;;;;;18.00;15.30;;;;;;;;;;4992403;28;20221;-85
2024/03/24 03:07:39;;;;;;;17.70;15.80;;;;;;;;;;4973427;28;20292;-87
2024/03/24 03:10:09;;;;;;;17.60;15.70;;;;;;;;;;4969398;28;20698;-84
2024/03/24 03:12:38;;;;;;;17.83;16.07;;;;;;;;;;4975133;28;20308;-86
2024/03/24 03:15:07;;;;;;;19.97;16.83;;;;;;;;;;4977248;28;20237;-84
2024/03/24 03:17:32;;;;;;;18.03;16.13;;;;;;;;;;5000224;28;20225;-86
2024/03/24 03:20:00;;;;;;;17.93;16.13;;;;;;;;;;4958829;28;20229;-84
2024/03/24 03:22:26;;;;;;;19.03;17.13;;;;;;;;;;4983743;28;20232;-84
2024/03/24 03:24:51;;;;;;;19.07;17.13;;;;;;;;;;4974256;28;20226;-85
2024/03/24 03:27:19;;;;;;;19.57;17.57;;;;;;;;;;4986357;28;20221;-82
2024/03/24 03:29:47;;;;;;;19.17;17.37;;;;;;;;;;4959236;28;20248;-84
2024/03/24 03:32:12;;;;;;;20.37;18.17;;;;;;;;;;4981581;28;20261;-85
2024/03/24 03:34:38;;;;;;;19.90;17.80;;;;;;;;;;4959290;28;20230;-84
2024/03/24 03:37:03;;;;;;;20.67;18.50;;;;;;;;;;4975168;28;20247;-86
2024/03/24 03:39:29;;;;;;;20.70;18.70;;;;;;;;;;4992695;28;20758;-86
2024/03/24 03:41:55;;;;;;;20.53;18.37;;;;;;;;;;4969322;28;20284;-84
2024/03/24 03:44:21;;;;;;;21.63;19.33;;;;;;;;;;4989612;28;20227;-84
2024/03/24 03:46:54;;;;;;;21.73;19.50;;;;;;;;;;4961347;28;20226;-82
2024/03/24 03:49:20;;;;;;;21.27;19.13;;;;;;;;;;4998986;28;20279;-84
2024/03/24 03:51:46;;;;;;;21.90;18.70;;;;;;;;;;4981273;28;21054;-84
2024/03/24 03:54:14;;;;;;;20.93;18.73;;;;;;;;;;4986719;28;20234;-85
2024/03/24 03:56:40;;;;;;;21.63;19.40;;;;;;;;;;4999179;28;20234;-83
2024/03/24 04:02:57;;;;;;;20.87;18.67;;;;;;;;;;4987055;28;20232;-84
2024/03/24 04:05:23;;;;;;;21.40;19.13;;;;;;;;;;4976830;28;20301;-84
2024/03/24 04:07:51;;;;;;;21.90;19.57;;;;;;;;;;4998686;28;20561;-85
2024/03/24 04:10:17;;;;;;;22.60;20.23;;;;;;;;;;4967381;28;20317;-83
2024/03/24 04:12:45;;;;;;;21.80;19.53;;;;;;;;;;4970118;28;20225;-83
2024/03/24 04:15:10;;;;;;;21.53;19.33;;;;;;;;;;4963847;28;20230;-84
2024/03/24 04:17:37;;;;;;;22.87;20.17;;;;;;;;;;4986724;28;20272;-83
2024/03/24 04:23:51;;;;;;;22.80;20.60;;;;;;;;;;4984689;28;20659;-86
2024/03/24 04:26:17;;;;;;;23.60;21.20;;;;;;;;;;4987864;28;20276;-86
2024/03/24 04:28:43;;;;;;;23.53;21.20;;;;;;;;;;4969951;28;20210;-87
2024/03/24 04:31:09;;;;;;;24.07;21.47;;;;;;;;;;4966954;28;20229;-83
2024/03/24 04:33:37;;;;;;;25.63;22.53;;;;;;;;;;4976382;28;20238;-84
2024/03/24 04:36:04;;;;;;;24.13;21.63;;;;;;;;;;4976271;28;20364;-84
2024/03/24 04:38:32;;;;;;;25.03;22.57;;;;;;;;;;4972996;28;20279;-86
2024/03/24 04:40:57;;;;;;;26.87;22.80;;;;;;;;;;4978193;28;20218;-84
2024/03/24 04:43:26;;;;;;;25.60;23.10;;;;;;;;;;4998463;28;20213;-81
2024/03/24 04:45:52;;;;;;;26.30;23.40;;;;;;;;;;4957115;28;20264;-85
2024/03/24 04:48:18;;;;;;;26.20;23.50;;;;;;;;;;4958715;28;21042;-85
2024/03/24 04:50:45;;;;;;;26.20;23.50;;;;;;;;;;4955181;28;20226;-86
2024/03/24 04:53:13;;;;;;;26.60;23.90;;;;;;;;;;4953585;28;20320;-84
2024/03/24 04:55:38;;;;;;;26.10;23.57;;;;;;;;;;4967382;28;20232;-86
2024/03/24 04:58:08;;;;;;;28.00;24.17;;;;;;;;;;4970846;28;20229;-85
2024/03/24 05:00:35;;;;;;;27.40;24.63;;;;;;;;;;4971316;28;20273;-84
2024/03/24 05:03:01;;;;;;;26.80;24.00;;;;;;;;;;4962635;28;20598;-85
2024/03/24 05:05:27;;;;;;;28.67;25.60;;;;;;;;;;4978120;28;20217;-85
2024/03/24 05:07:53;;;;;;;27.23;24.50;;;;;;;;;;4959592;28;20236;-85
2024/03/24 05:10:21;;;;;;;28.20;25.27;;;;;;;;;;4953178;28;20229;-84
2024/03/24 05:12:52;;;;;;;27.23;24.30;;;;;;;;;;4991001;28;20213;-86
2024/03/24 05:15:18;;;;;;;28.70;25.00;;;;;;;;;;4944027;28;20221;-86
2024/03/24 05:17:44;;;;;;;26.70;24.00;;;;;;;;;;4988159;28;20238;-82
2024/03/24 05:20:10;;;;;;;27.50;24.80;;;;;;;;;;5002899;28;20221;-84
2024/03/24 05:22:38;;;;;;;26.80;24.10;;;;;;;;;;5000100;28;20224;-86
2024/03/24 05:25:09;;;;;;;27.53;24.70;;;;;;;;;;4967846;28;20578;-83
2024/03/24 05:27:35;;;;;;;29.20;24.50;;;;;;;;;;4982402;28;20237;-82
2024/03/24 05:30:00;;;;;;;26.97;24.27;;;;;;;;;;4994977;28;20328;-84
2024/03/24 05:32:26;;;;;;;26.47;23.57;;;;;;;;;;5009388;28;20221;-83
2024/03/24 05:34:59;;;;;;;26.97;24.17;;;;;;;;;;4983105;28;20229;-81
2024/03/24 05:37:29;;;;;;;25.63;22.87;;;;;;;;;;4994976;28;20221;-85
2024/03/24 05:39:55;;;;;;;25.57;22.93;;;;;;;;;;5012044;28;20226;-83
2024/03/24 05:42:21;;;;;;;25.20;22.80;;;;;;;;;;4984260;28;20213;-84
2024/03/24 05:44:47;;;;;;;24.90;22.40;;;;;;;;;;5014005;28;20778;-86
2024/03/24 05:47:15;;;;;;;21.03;19.00;;;;;;;;;;4986180;28;20232;-84
2024/03/24 05:49:43;;;;;;;21.87;19.67;;;;;;;;;;5001050;28;20218;-84
2024/03/24 05:52:08;;;;;;;20.70;18.60;;;;;;;;;;4995657;28;20236;-84
2024/03/24 05:54:36;;;;;;;18.67;16.80;;;;;;;;;;5000712;28;20455;-83
2024/03/24 05:57:02;;;;;;;16.57;14.97;;;;;;;;;;4993093;28;20218;-85
2024/03/24 05:59:30;;;;;;;15.50;14.00;;;;;;;;;;5001109;28;20672;-86
2024/03/24 06:01:58;;;;;;;14.13;12.73;;;;;;;;;;5010007;28;20237;-87
2024/03/24 06:04:30;;;;;;;14.47;13.00;;;;;;;;;;4961694;28;20227;-86
2024/03/24 06:06:59;;;;;;;14.63;13.30;;;;;;;;;;4978225;28;20255;-86
2024/03/24 06:09:25;;;;;;;14.73;13.43;;;;;;;;;;5005050;28;20221;-87
2024/03/24 06:11:50;;;;;;;14.43;13.03;;;;;;;;;;4988360;28;20287;-85
2024/03/24 06:14:16;;;;;;;14.63;13.20;;;;;;;;;;4983882;28;20246;-85
2024/03/24 06:16:43;;;;;;;15.07;13.77;;;;;;;;;;4989808;28;20232;-85
2024/03/24 06:19:13;;;;;;;15.43;13.90;;;;;;;;;;4977017;28;20410;-85
2024/03/24 06:21:41;;;;;;;15.30;13.70;;;;;;;;;;4994602;28;20237;-83
2024/03/24 06:24:07;;;;;;;16.27;14.67;;;;;;;;;;4979731;28;20214;-85
2024/03/24 06:26:32;;;;;;;16.73;15.13;;;;;;;;;;4974827;28;20729;-84
2024/03/24 06:29:00;;;;;;;16.00;14.50;;;;;;;;;;4975098;28;20209;-84
2024/03/24 06:31:28;;;;;;;16.77;15.17;;;;;;;;;;4987720;28;20640;-85
2024/03/24 06:33:57;;;;;;;17.30;15.50;;;;;;;;;;5003890;28;20243;-84
2024/03/24 06:36:26;;;;;;;17.07;15.30;;;;;;;;;;4976549;28;20336;-86
2024/03/24 06:38:56;;;;;;;17.67;15.97;;;;;;;;;;4986496;28;20256;-82
2024/03/24 06:41:29;;;;;;;16.90;15.20;;;;;;;;;;5006648;28;20296;-84
2024/03/24 06:43:55;;;;;;;17.53;15.67;;;;;;;;;;4995878;28;20304;-83
2024/03/24 06:46:22;;;;;;;18.73;16.80;;;;;;;;;;4995250;28;20726;-84
2024/03/24 06:48:47;;;;;;;18.70;16.80;;;;;;;;;;5004631;28;20246;-87
2024/03/24 06:51:15;;;;;;;18.37;16.63;;;;;;;;;;4987039;28;20217;-85
2024/03/24 06:53:40;;;;;;;17.77;16.07;;;;;;;;;;4971266;28;20316;-84
2024/03/24 06:56:06;;;;;;;18.13;16.23;;;;;;;;;;5003688;28;20309;-85
2024/03/24 06:58:34;;;;;;;17.83;16.13;;;;;;;;;;5009743;28;20247;-81
2024/03/24 07:01:02;;;;;;;18.20;16.50;;;;;;;;;;5013171;28;20225;-85
2024/03/24 07:03:27;;;;;;;19.90;17.87;;;;;;;;;;4996971;28;20320;-84
2024/03/24 07:05:55;;;;;;;20.30;18.20;;;;;;;;;;5007144;28;20240;-85
2024/03/24 07:08:20;;;;;;;19.10;17.30;;;;;;;;;;4987279;28;20219;-85
2024/03/24 07:10:51;;;;;;;19.57;17.47;;;;;;;;;;4955739;28;20225;-86
2024/03/24 07:13:16;;;;;;;20.23;18.23;;;;;;;;;;4994797;28;20226;-85
2024/03/24 07:15:47;;;;;;;19.10;17.30;;;;;;;;;;4978881;28;20989;-82
2024/03/24 07:18:12;;;;;;;19.27;17.40;;;;;;;;;;4980332;28;20224;-84
2024/03/24 07:20:38;;;;;;;20.47;18.47;;;;;;;;;;5004143;28;20212;-84
2024/03/24 07:23:04;;;;;;;18.40;16.67;;;;;;;;;;4969951;28;20229;-87
2024/03/24 07:25:31;;;;;;;18.57;16.73;;;;;;;;;;4967210;28;20229;-83
2024/03/24 07:27:57;;;;;;;19.53;17.50;;;;;;;;;;4977053;28;20236;-84
2024/03/24 07:30:22;;;;;;;17.97;16.33;;;;;;;;;;4993863;28;20225;-85
2024/03/24 07:32:48;;;;;;;18.33;16.53;;;;;;;;;;4952190;28;20659;-84
2024/03/24 07:35:13;;;;;;;16.47;14.97;;;;;;;;;;4968794;28;20675;-83
2024/03/24 07:37:41;;;;;;;15.17;13.77;;;;;;;;;;4987953;28;20226;-87
2024/03/24 07:40:07;;;;;;;14.93;13.53;;;;;;;;;;4990282;28;20252;-85
2024/03/24 07:42:35;;;;;;;14.90;13.57;;;;;;;;;;4967586;28;20292;-84
2024/03/24 07:45:01;;;;;;;14.57;13.27;;;;;;;;;;4956466;28;21302;-86
2024/03/24 07:47:33;;;;;;;13.20;11.97;;;;;;;;;;4976927;28;20611;-84
2024/03/24 07:49:59;;;;;;;13.07;11.77;;;;;;;;;;4985793;28;20229;-85
2024/03/24 07:52:24;;;;;;;11.70;10.70;;;;;;;;;;5000362;28;20239;-86
2024/03/24 07:54:50;;;;;;;11.63;10.63;;;;;;;;;;4962190;28;20234;-86
2024/03/24 07:57:17;;;;;;;11.83;10.63;;;;;;;;;;4957116;28;20975;-85
2024/03/24 07:59:43;;;;;;;11.37;10.27;;;;;;;;;;4971677;28;20218;-86
2024/03/24 08:02:09;;;;;;;10.30;9.40;;;;;;;;;;4957425;28;20593;-86
2024/03/24 08:04:37;;;;;;;10.07;9.10;;;;;;;;;;4988718;28;20308;-84
2024/03/24 08:07:02;;;;;;;9.10;8.30;;;;;;;;;;5003480;28;20391;-83
2024/03/24 08:09:31;;;;;;;9.10;8.30;;;;;;;;;;4975565;28;20699;-86
2024/03/24 08:12:01;;;;;;;7.70;7.00;;;;;;;;;;4989112;28;20233;-86
2024/03/24 08:14:27;;;;;;;7.83;7.13;;;;;;;;;;4990609;28;20257;-83
2024/03/24 08:16:57;;;;;;;7.13;6.50;;;;;;;;;;4987176;28;20872;-84
2024/03/24 08:19:26;;;;;;;6.73;6.13;;;;;;;;;;4984505;28;20222;-84
2024/03/24 08:21:51;;;;;;;6.60;6.00;;;;;;;;;;4997577;28;20305;-83
2024/03/24 08:24:19;;;;;;;6.53;6.00;;;;;;;;;;4960902;28;20217;-84
2024/03/24 08:26:45;;;;;;;6.90;6.30;;;;;;;;;;4985959;28;20275;-82
2024/03/24 08:29:10;;;;;;;7.00;6.40;;;;;;;;;;4974146;28;20696;-84
2024/03/24 08:31:36;;;;;;;6.60;6.00;;;;;;;;;;4961222;28;20835;-84
2024/03/24 08:34:01;;;;;;;6.40;5.90;;;;;;;;;;5004256;28;20238;-84
2024/03/24 08:36:34;;;;;;;6.30;5.70;;;;;;;;;;4975034;28;20235;-85
2024/03/24 08:39:00;;;;;;;6.03;5.53;;;;;;;;;;4989515;28;20225;-86
2024/03/24 08:41:25;;;;;;;5.57;5.17;;;;;;;;;;4999851;28;20298;-84
2024/03/24 08:43:55;;;;;;;4.87;4.40;;;;;;;;;;4972473;28;20237;-87
2024/03/24 08:46:25;;;;;;;5.23;4.83;;;;;;;;;;4998200;28;20226;-84
2024/03/24 08:48:53;;;;;;;5.20;4.33;;;;;;;;;;4981277;28;20230;-84
2024/03/24 08:51:21;;;;;;;4.60;4.20;;;;;;;;;;4990980;28;20237;-83
2024/03/24 08:53:49;;;;;;;4.30;4.00;;;;;;;;;;4979573;28;20267;-84
2024/03/24 08:56:14;;;;;;;4.20;3.90;;;;;;;;;;4975704;28;20233;-84
2024/03/24 08:58:44;;;;;;;4.43;3.70;;;;;;;;;;4973853;28;20228;-85
2024/03/24 09:01:12;;;;;;;3.97;3.67;;;;;;;;;;5003863;28;20217;-83
2024/03/24 09:03:38;;;;;;;4.97;4.00;;;;;;;;;;4976875;28;20232;-83
2024/03/24 09:06:06;;;;;;;4.23;3.83;;;;;;;;;;4967201;28;20947;-85
2024/03/24 09:08:32;;;;;;;4.17;3.80;;;;;;;;;;4968410;28;20218;-86
2024/03/24 09:10:58;;;;;;;4.13;3.73;;;;;;;;;;4991440;28;20302;-84
2024/03/24 09:13:26;;;;;;;4.20;3.83;;;;;;;;;;4976886;28;20236;-84
2024/03/24 09:15:52;;;;;;;4.40;3.80;;;;;;;;;;4975181;28;20241;-85
2024/03/24 09:18:22;;;;;;;4.97;4.20;;;;;;;;;;4977407;28;20221;-84
2024/03/24 09:20:48;;;;;;;8.07;4.47;;;;;;;;;;4985826;28;20225;-85
2024/03/24 09:23:15;;;;;;;5.80;4.50;;;;;;;;;;4984509;28;20225;-85
2024/03/24 09:25:43;;;;;;;5.27;4.27;;;;;;;;;;4998376;28;20241;-83
2024/03/24 09:28:11;;;;;;;4.63;3.90;;;;;;;;;;4978284;28;20221;-85
2024/03/24 09:30:36;;;;;;;4.37;3.60;;;;;;;;;;4960003;28;20222;-85
2024/03/24 09:33:03;;;;;;;4.90;3.97;;;;;;;;;;4973209;28;20225;-86
2024/03/24 09:35:31;;;;;;;5.53;4.43;;;;;;;;;;4972398;28;20320;-84
2024/03/24 09:37:57;;;;;;;4.50;3.63;;;;;;;;;;4985389;28;20991;-84
2024/03/24 09:40:25;;;;;;;6.27;3.47;;;;;;;;;;4986511;28;21614;-84
2024/03/24 09:42:52;;;;;;;3.97;3.43;;;;;;;;;;4988969;28;20217;-84
2024/03/24 09:45:18;;;;;;;3.83;3.40;;;;;;;;;;4988764;28;20302;-84
2024/03/24 09:47:46;;;;;;;5.87;3.63;;;;;;;;;;4988324;28;20244;-83
2024/03/24 09:50:12;;;;;;;6.00;4.40;;;;;;;;;;5017556;28;20213;-86
2024/03/24 09:52:42;;;;;;;6.03;3.67;;;;;;;;;;4980628;28;20693;-84
2024/03/24 09:55:15;;;;;;;4.27;3.23;;;;;;;;;;4972961;28;20258;-85
2024/03/24 09:57:40;;;;;;;4.97;3.10;;;;;;;;;;5013262;28;20221;-84
2024/03/24 10:00:11;;;;;;;4.63;3.40;;;;;;;;;;4994383;28;20849;-84
2024/03/24 10:02:43;;;;;;;5.77;3.20;;;;;;;;;;4979807;28;20217;-86
2024/03/24 10:05:11;;;;;;;5.77;3.43;;;;;;;;;;4976580;28;20234;-76
2024/03/24 10:07:39;;;;;;;5.60;3.20;;;;;;;;;;4981432;28;20225;-79
2024/03/24 10:10:09;;;;;;;4.93;2.90;;;;;;;;;;5014492;28;20236;-76
2024/03/24 10:12:42;;;;;;;5.23;3.20;;;;;;;;;;4976304;28;20228;-77
2024/03/24 10:15:22;;;;;;;4.90;3.43;;;;;;;;;;4977142;28;20298;-78
2024/03/24 10:18:11;;;;;;;5.20;2.57;;;;;;;;;;5005339;28;20248;-79
2024/03/24 10:20:39;;;;;;;4.50;2.90;;;;;;;;;;5009049;28;20227;-77
2024/03/24 10:23:05;;;;;;;4.30;2.60;;;;;;;;;;5002402;28;20218;-76
2024/03/24 10:25:31;;;;;;;3.90;2.73;;;;;;;;;;5022076;28;20233;-77
2024/03/24 10:27:57;;;;;;;5.27;2.70;;;;;;;;;;4975189;28;20791;-78
2024/03/24 10:30:26;;;;;;;6.47;3.40;;;;;;;;;;5004690;28;20237;-78
2024/03/24 10:32:52;;;;;;;6.60;2.93;;;;;;;;;;4991749;28;20692;-75
2024/03/24 10:35:19;;;;;;;3.23;2.60;;;;;;;;;;4986228;28;20229;-77
2024/03/24 10:37:44;;;;;;;6.23;3.10;;;;;;;;;;4984328;28;20289;-77
2024/03/24 10:40:16;;;;;;;5.43;3.83;;;;;;;;;;4996073;28;20329;-79
2024/03/24 10:42:45;;;;;;;4.37;2.63;;;;;;;;;;4970902;28;20221;-77
2024/03/24 10:45:15;;;;;;;5.90;2.63;;;;;;;;;;4989107;28;20335;-79
2024/03/24 10:47:47;;;;;;;5.87;2.90;;;;;;;;;;4985599;28;20290;-78
2024/03/24 10:50:16;;;;;;;5.70;2.90;;;;;;;;;;4977005;28;20221;-77
2024/03/24 10:52:44;;;;;;;6.30;2.60;;;;;;;;;;4968612;28;20236;-77
2024/03/24 10:55:10;;;;;;;4.40;2.37;;;;;;;;;;4972923;28;20220;-78
2024/03/24 10:57:38;;;;;;;8.07;2.60;;;;;;;;;;4995078;28;20283;-77
2024/03/24 11:00:04;;;;;;;5.00;2.43;;;;;;;;;;4967623;28;20226;-80
2024/03/24 11:02:30;;;;;;;3.43;2.13;;;;;;;;;;4957270;28;20596;-78
2024/03/24 11:04:58;;;;;;;3.50;1.90;;;;;;;;;;4999726;28;20221;-78
2024/03/24 11:07:24;;;;;;;5.70;3.37;;;;;;;;;;4996959;28;20273;-78
2024/03/24 11:09:51;;;;;;;4.90;2.00;;;;;;;;;;4983409;28;20591;-80
2024/03/24 11:12:17;;;;;;;6.47;3.63;;;;;;;;;;4985274;28;20749;-80
2024/03/24 11:14:43;;;;;;;5.93;4.20;;;;;;;;;;4957542;28;20230;-79
2024/03/24 11:17:10;;;;;;;6.17;2.33;;;;;;;;;;5003619;28;20233;-80
2024/03/24 11:20:01;;;;;;;3.07;2.03;;;;;;;;;;4958103;28;20568;-77
2024/03/24 11:22:48;;;;;;;5.23;1.73;;;;;;;;;;5008413;28;20288;-81
2024/03/24 11:25:19;;;;;;;4.87;2.10;;;;;;;;;;4971576;28;20248;-79
2024/03/24 11:27:45;;;;;;;5.97;1.80;;;;;;;;;;4972597;28;20224;-79
2024/03/24 11:30:17;;;;;;;5.73;1.40;;;;;;;;;;4989043;28;20223;-81
2024/03/24 11:32:52;;;;;;;2.30;1.60;;;;;;;;;;5009342;28;20224;-79
2024/03/24 11:35:21;;;;;;;4.57;1.70;;;;;;;;;;4973476;28;20288;-81
2024/03/24 11:37:52;;;;;;;3.97;1.50;;;;;;;;;;4970929;28;20296;-76
2024/03/24 11:40:21;;;;;;;7.60;5.57;;;;;;;;;;5000175;28;20229;-80
2024/03/24 11:42:50;;;;;;;4.83;1.90;;;;;;;;;;4983943;28;20305;-81
2024/03/24 11:45:38;;;;;;;4.77;3.93;;;;;;;;;;4980656;28;20244;-78
2024/03/24 11:48:32;;;;;;;5.37;2.60;;;;;;;;;;5002544;28;20237;-79
2024/03/24 11:51:01;;;;;;;4.00;1.87;;;;;;;;;;4983127;28;20241;-79
2024/03/24 11:53:29;;;;;;;5.37;2.07;;;;;;;;;;4972635;28;20249;-80
2024/03/24 11:55:55;;;;;;;5.70;2.27;;;;;;;;;;4947180;28;20233;-78
2024/03/24 11:58:23;;;;;;;2.73;1.80;;;;;;;;;;5007335;28;20235;-79
2024/03/24 12:00:53;;;;;;;4.03;2.00;;;;;;;;;;4997278;28;20224;-81
2024/03/24 12:03:23;;;;;;;3.93;1.80;;;;;;;;;;5003528;28;20809;-80
2024/03/24 12:05:52;;;;;;;2.70;1.40;;;;;;;;;;4986631;28;20275;-80
2024/03/24 12:08:20;;;;;;;2.87;1.50;;;;;;;;;;5007929;28;20221;-79
2024/03/24 12:10:45;;;;;;;3.37;1.20;;;;;;;;;;4974652;28;20309;-78
2024/03/24 12:13:20;;;;;;;4.33;1.53;;;;;;;;;;4989998;28;20304;-78
2024/03/24 12:15:46;;;;;;;4.50;1.30;;;;;;;;;;5002238;28;20218;-77
2024/03/24 12:18:12;;;;;;;3.43;1.53;;;;;;;;;;4985139;28;20223;-78
2024/03/24 12:20:37;;;;;;;3.53;1.30;;;;;;;;;;4968207;28;20225;-78
2024/03/24 12:23:03;;;;;;;2.60;1.23;;;;;;;;;;4968223;28;20327;-81
2024/03/24 12:25:29;;;;;;;2.30;1.07;;;;;;;;;;4970194;28;20652;-81
2024/03/24 12:27:55;;;;;;;1.80;1.30;;;;;;;;;;5000859;28;20806;-80
2024/03/24 12:30:21;;;;;;;3.07;1.20;;;;;;;;;;4974877;28;20232;-78
2024/03/24 12:32:48;;;;;;;1.83;1.10;;;;;;;;;;4974779;28;20244;-79
2024/03/24 12:35:16;;;;;;;2.07;1.10;;;;;;;;;;5001977;28;20241;-81
2024/03/24 12:37:44;;;;;;;2.37;0.90;;;;;;;;;;4960375;28;20240;-79
2024/03/24 12:40:20;;;;;;;2.73;1.70;;;;;;;;;;4990495;28;20291;-79
2024/03/24 12:42:49;;;;;;;6.33;3.77;;;;;;;;;;4987424;28;20287;-81
2024/03/24 12:45:15;;;;;;;9.80;6.00;;;;;;;;;;4973363;28;20236;-80
2024/03/24 12:47:42;;;;;;;1.83;1.40;;;;;;;;;;4968033;28;20320;-79
2024/03/24 12:50:28;;;;;;;1.10;1.00;;;;;;;;;;4954923;28;20608;-80
2024/03/24 12:53:30;;;;;;;1.80;1.17;;;;;;;;;;5001432;28;20225;-79
2024/03/24 12:55:59;;;;;;;2.83;1.40;;;;;;;;;;4974959;28;20253;-77
2024/03/24 12:58:28;;;;;;;1.67;1.00;;;;;;;;;;4955829;28;20222;-79
2024/03/24 13:00:53;;;;;;;1.40;1.23;;;;;;;;;;4971681;28;20777;-78
2024/03/24 13:03:19;;;;;;;1.90;1.03;;;;;;;;;;4964987;28;20221;-79
2024/03/24 13:05:44;;;;;;;1.63;1.00;;;;;;;;;;4963868;28;20228;-80
2024/03/24 13:08:10;;;;;;;3.23;2.93;;;;;;;;;;5000966;28;20234;-80
2024/03/24 13:10:35;;;;;;;1.97;1.40;;;;;;;;;;5000326;28;20229;-79
2024/03/24 13:13:03;;;;;;;1.83;1.20;;;;;;;;;;4982709;28;20233;-80
2024/03/24 13:15:35;;;;;;;1.77;1.30;;;;;;;;;;4968514;28;20233;-80
2024/03/24 13:18:20;;;;;;;1.10;1.00;;;;;;;;;;4969086;28;20252;-78
2024/03/24 13:20:50;;;;;;;2.77;1.73;;;;;;;;;;4974263;28;20221;-79
2024/03/24 13:23:15;;;;;;;3.47;1.50;;;;;;;;;;4984736;28;20237;-80
2024/03/24 13:25:46;;;;;;;2.63;1.70;;;;;;;;;;4989833;28;21173;-78
2024/03/24 13:28:18;;;;;;;3.80;1.60;;;;;;;;;;4987521;28;20240;-78
2024/03/24 13:30:45;;;;;;;2.53;1.70;;;;;;;;;;4968113;28;20226;-79
2024/03/24 13:33:10;;;;;;;3.10;1.90;;;;;;;;;;5000172;28;20572;-79
2024/03/24 13:35:36;;;;;;;4.23;1.83;;;;;;;;;;4970960;28;20226;-79
2024/03/24 13:38:10;;;;;;;2.53;1.80;;;;;;;;;;4973862;28;20276;-79
2024/03/24 13:41:13;;;;;;;4.27;2.20;;;;;;;;;;4985015;28;20227;-80
2024/03/24 13:44:28;;;;;;;3.40;2.17;;;;;;;;;;4989445;28;20264;-80
2024/03/24 13:47:32;;;;;;;3.93;2.30;;;;;;;;;;4999467;28;20424;-80
2024/03/24 13:50:01;;;;;;;2.83;2.27;;;;;;;;;;5032811;28;20310;-79
2024/03/24 13:52:33;;;;;;;3.17;2.00;;;;;;;;;;4994533;28;20289;-79
2024/03/24 13:55:01;;;;;;;2.77;2.00;;;;;;;;;;4971170;28;20237;-80
2024/03/24 13:57:33;;;;;;;3.57;2.07;;;;;;;;;;4990153;28;20229;-78
2024/03/24 13:59:59;;;;;;;5.03;3.73;;;;;;;;;;5014326;28;20244;-80
2024/03/24 14:02:28;;;;;;;3.73;2.60;;;;;;;;;;4969451;28;20213;-78
2024/03/24 14:04:54;;;;;;;3.90;2.90;;;;;;;;;;4981064;28;20466;-80
2024/03/24 14:07:20;;;;;;;4.90;2.97;;;;;;;;;;5021247;28;20267;-80
2024/03/24 14:09:48;;;;;;;4.77;3.70;;;;;;;;;;5027732;28;20251;-79
2024/03/24 14:12:16;;;;;;;4.23;3.03;;;;;;;;;;5020784;28;20252;-77
2024/03/24 14:15:09;;;;;;;4.53;2.90;;;;;;;;;;4991738;28;20233;-78
2024/03/24 14:17:38;;;;;;;4.20;3.30;;;;;;;;;;5011682;28;20231;-80
2024/03/24 14:20:06;;;;;;;3.93;2.80;;;;;;;;;;5022937;28;20275;-78
2024/03/24 14:22:35;;;;;;;3.90;2.70;;;;;;;;;;4977186;28;20271;-79
2024/03/24 14:25:24;;;;;;;6.93;4.70;;;;;;;;;;4955456;28;20261;-79
2024/03/24 14:27:51;;;;;;;5.20;3.30;;;;;;;;;;5025145;28;20229;-79
2024/03/24 14:30:20;;;;;;;5.17;3.40;;;;;;;;;;4980354;28;20246;-78
2024/03/24 14:32:48;;;;;;;4.17;2.50;;;;;;;;;;4990382;28;20217;-77
2024/03/24 14:35:13;;;;;;;3.70;2.43;;;;;;;;;;4982162;28;20234;-78
2024/03/24 14:37:48;;;;;;;5.30;4.00;;;;;;;;;;4978451;28;20213;-78
2024/03/24 14:40:41;;;;;;;3.93;2.93;;;;;;;;;;4992450;28;20298;-76
2024/03/24 14:43:35;;;;;;;3.87;2.50;;;;;;;;;;5007353;28;20328;-74
2024/03/24 14:46:13;;;;;;;4.63;2.67;;;;;;;;;;5019645;28;20239;-78
2024/03/24 14:48:38;;;;;;;3.60;2.07;;;;;;;;;;4998346;28;20221;-76